Time;durP1;ratioP1;P1;durP2;ratioP2;P2;SDS_P1;SDS_P2;PMS_P1;PMS_P2;Temp;Humidity;BMP_temperature;BMP_pressure;BME280_temperature;BME280_humidity;BME280_pressure;Samples;Min_cycle;Max_cycle;Signal;HPM_P1;HPM_P2
2023/05/05 00:01:33;;;;;;;13.35;4.88;;;;;;;15.39;98.39;101413.09;10344903;28;20026;-74
2023/05/05 00:06:33;;;;;;;7.07;4.82;;;;;;;15.37;91.30;101398.81;10332669;28;20065;-75
2023/05/05 00:11:33;;;;;;;9.27;4.85;;;;;;;15.31;91.63;101384.16;10322897;28;20082;-75
2023/05/05 00:16:34;;;;;;;5.88;3.33;;;;;;;15.34;88.98;101367.34;10337392;28;20065;-75
2023/05/05 00:21:34;;;;;;;8.07;2.42;;;;;;;15.38;90.87;101358.72;10335440;28;20041;-76
2023/05/05 00:26:35;;;;;;;4.30;2.22;;;;;;;15.53;88.96;101360.09;10318576;28;20046;-75
2023/05/05 00:31:36;;;;;;;3.40;1.85;;;;;;;15.60;86.07;101351.88;10333930;28;20057;-75
2023/05/05 00:36:36;;;;;;;3.75;2.13;;;;;;;15.64;85.09;101357.75;10335767;28;20041;-76
2023/05/05 00:41:37;;;;;;;1.85;1.17;;;;;;;15.65;85.47;101362.97;10334806;28;20065;-75
2023/05/05 00:46:39;;;;;;;2.05;1.60;;;;;;;15.64;85.40;101368.66;10334230;28;20045;-76
2023/05/05 00:51:39;;;;;;;2.63;2.05;;;;;;;15.61;85.56;101378.13;10316817;28;20034;-76
2023/05/05 00:56:40;;;;;;;1.95;1.58;;;;;;;15.62;85.33;101384.41;10333532;28;20394;-77
2023/05/05 01:01:41;;;;;;;1.63;1.52;;;;;;;15.55;86.30;101385.28;10315774;28;20042;-76
2023/05/05 01:06:51;;;;;;;1.42;1.33;;;;;;;15.39;85.01;101385.81;10316234;28;20097;-76
2023/05/05 01:12:34;;;;;;;1.95;1.85;;;;;;;15.09;85.46;101383.63;10317422;28;20034;-75
2023/05/05 01:17:41;;;;;;;3.55;1.73;;;;;;;14.92;85.20;101395.22;10297838;28;20038;-75
2023/05/05 01:22:44;;;;;;;3.22;2.28;;;;;;;14.78;84.88;101394.44;10332306;28;20034;-76
2023/05/05 01:28:12;;;;;;;2.65;1.92;;;;;;;14.65;84.82;101407.03;10315551;28;20033;-75
2023/05/05 01:33:13;;;;;;;6.45;2.72;;;;;;;14.52;87.23;101419.84;10315024;28;20034;-76
2023/05/05 01:38:34;;;;;;;7.80;2.83;;;;;;;14.47;92.06;101422.31;10299328;28;20088;-76
2023/05/05 01:43:35;;;;;;;2.60;2.38;;;;;;;14.38;95.70;101421.69;10297922;28;20097;-76
2023/05/05 01:48:35;;;;;;;5.82;1.98;;;;;;;14.27;97.52;101416.88;10317235;28;20084;-76
2023/05/05 01:53:36;;;;;;;6.70;1.90;;;;;;;14.12;95.98;101412.44;10316140;28;20029;-75
2023/05/05 01:58:36;;;;;;;5.70;2.67;;;;;;;14.04;98.79;101419.97;10314813;28;20046;-75
2023/05/05 02:03:37;;;;;;;7.55;2.42;;;;;;;14.01;99.90;101423.97;10315440;28;20030;-76
2023/05/05 02:08:37;;;;;;;4.88;2.58;;;;;;;13.95;99.35;101419.38;10318534;28;20101;-76
2023/05/05 02:13:38;;;;;;;6.70;2.75;;;;;;;13.86;100.00;101423.31;10329360;28;20034;-76
2023/05/05 02:18:38;;;;;;;2.85;2.28;;;;;;;13.77;99.58;101427.28;10342119;28;20089;-76
2023/05/05 02:23:39;;;;;;;5.93;2.92;;;;;;;13.70;98.52;101441.69;10322275;28;20077;-75
2023/05/05 02:28:48;;;;;;;10.52;2.95;;;;;;;13.63;100.00;101440.03;10322589;28;20034;-76
2023/05/05 02:33:49;;;;;;;11.70;4.97;;;;;;;13.57;100.00;101441.66;10324934;28;20086;-75
2023/05/05 02:38:53;;;;;;;10.25;4.15;;;;;;;13.54;100.00;101447.50;10326438;28;20034;-75
2023/05/05 02:43:54;;;;;;;7.38;5.80;;;;;;;13.47;100.00;101441.22;10321601;28;20113;-76
2023/05/05 02:48:54;;;;;;;10.63;6.40;;;;;;;13.45;100.00;101444.13;10321245;28;20500;-75
2023/05/05 02:53:55;;;;;;;9.93;7.32;;;;;;;13.38;100.00;101451.44;10320341;28;20057;-76
2023/05/05 02:59:04;;;;;;;11.32;7.07;;;;;;;13.34;100.00;101463.75;10321046;28;20434;-75
2023/05/05 03:04:12;;;;;;;14.25;8.40;;;;;;;13.27;100.00;101452.00;10337840;28;20116;-75
2023/05/05 03:09:24;;;;;;;11.77;9.50;;;;;;;13.17;100.00;101456.94;10304650;28;20493;-75
2023/05/05 03:14:25;;;;;;;16.50;10.73;;;;;;;13.08;100.00;101441.81;10322116;28;20038;-76
2023/05/05 03:19:26;;;;;;;28.40;13.27;;;;;;;13.03;100.00;101434.28;10320543;28;20458;-76
2023/05/05 03:24:27;;;;;;;26.92;16.35;;;;;;;13.02;100.00;101438.88;10319013;28;20034;-76
2023/05/05 03:29:28;;;;;;;22.70;17.25;;;;;;;12.98;100.00;101444.91;10339335;28;20454;-76
2023/05/05 03:34:29;;;;;;;30.73;17.25;;;;;;;12.91;100.00;101457.63;10318626;28;20108;-76
2023/05/05 03:39:30;;;;;;;29.77;18.02;;;;;;;12.87;100.00;101446.31;10319382;28;20038;-76
2023/05/05 03:44:30;;;;;;;23.50;18.15;;;;;;;12.83;100.00;101461.34;10336905;28;20422;-75
2023/05/05 03:49:30;;;;;;;31.55;20.90;;;;;;;12.76;100.00;101461.31;10335489;28;20478;-77
2023/05/05 03:54:31;;;;;;;34.75;24.23;;;;;;;12.73;100.00;101461.69;10335495;28;20069;-76
2023/05/05 03:59:31;;;;;;;35.88;24.55;;;;;;;12.67;100.00;101467.91;10336074;28;20073;-75
2023/05/05 04:04:32;;;;;;;34.15;26.13;;;;;;;12.71;100.00;101471.91;10335234;28;20045;-75
2023/05/05 04:09:32;;;;;;;36.28;23.88;;;;;;;12.66;100.00;101468.94;10317482;28;20149;-74
2023/05/05 04:14:32;;;;;;;39.50;24.63;;;;;;;12.62;100.00;101478.53;10318642;28;20038;-74
2023/05/05 04:19:33;;;;;;;36.05;26.55;;;;;;;12.60;100.00;101483.31;10301624;28;20181;-76
2023/05/05 04:24:33;;;;;;;45.25;28.02;;;;;;;12.62;100.00;101496.72;10334283;28;20034;-76
2023/05/05 04:29:34;;;;;;;44.15;28.85;;;;;;;12.63;100.00;101498.38;10334767;28;20038;-75
2023/05/05 04:34:34;;;;;;;42.15;28.48;;;;;;;12.62;100.00;101492.13;10334039;28;20458;-77
2023/05/05 04:39:35;;;;;;;41.65;28.20;;;;;;;12.67;100.00;101495.09;10333604;28;20458;-75
2023/05/05 04:44:35;;;;;;;43.47;28.67;;;;;;;12.76;100.00;101493.91;10317971;28;20129;-77
2023/05/05 04:49:35;;;;;;;48.65;27.08;;;;;;;12.85;100.00;101491.03;10334525;28;20059;-75
2023/05/05 04:54:36;;;;;;;42.50;26.27;;;;;;;12.89;100.00;101489.59;10334066;28;20216;-75
2023/05/05 04:59:36;;;;;;;39.03;29.17;;;;;;;12.95;100.00;101494.22;10302017;28;20161;-76
2023/05/05 05:04:37;;;;;;;38.28;26.63;;;;;;;13.04;100.00;101495.75;10320965;28;20022;-75
2023/05/05 05:09:37;;;;;;;49.58;29.95;;;;;;;13.22;100.00;101506.97;10317947;28;20466;-77
2023/05/05 05:14:38;;;;;;;43.75;30.33;;;;;;;13.55;100.00;101514.50;10334429;28;20038;-75
2023/05/05 05:19:38;;;;;;;50.05;28.70;;;;;;;14.58;100.00;101508.91;10316221;28;20034;-76
2023/05/05 05:24:39;;;;;;;38.30;26.80;;;;;;;15.44;100.00;101511.50;10332917;28;20026;-75
2023/05/05 05:29:39;;;;;;;32.25;24.33;;;;;;;16.23;100.00;101504.03;10333456;28;20030;-76
2023/05/05 05:34:40;;;;;;;30.67;21.52;;;;;;;16.93;100.00;101503.94;10334286;28;20034;-76
2023/05/05 05:39:40;;;;;;;33.35;22.05;;;;;;;17.46;100.00;101500.66;10332994;28;20394;-76
2023/05/05 05:44:40;;;;;;;20.85;17.95;;;;;;;17.30;100.00;101512.19;10316392;28;20034;-76
2023/05/05 05:49:41;;;;;;;22.17;17.00;;;;;;;17.79;100.00;101533.13;10341298;28;20170;-77
2023/05/05 05:54:41;;;;;;;25.25;15.93;;;;;;;18.69;100.00;101547.88;10341139;28;20104;-76
2023/05/05 05:59:42;;;;;;;24.25;14.88;;;;;;;19.45;100.00;101540.66;10341435;28;20031;-76
2023/05/05 06:04:42;;;;;;;23.20;15.13;;;;;;;20.15;100.00;101547.88;10340585;28;20027;-74
2023/05/05 06:09:42;;;;;;;15.15;11.30;;;;;;;21.02;100.00;101550.25;10340931;28;20399;-76
2023/05/05 06:14:44;;;;;;;16.05;12.00;;;;;;;21.72;96.74;101559.00;10343715;28;20050;-76
2023/05/05 06:19:45;;;;;;;14.52;12.02;;;;;;;21.95;94.28;101556.00;10344730;28;20141;-76
2023/05/05 06:24:45;;;;;;;13.70;10.38;;;;;;;21.84;89.62;101565.22;10343144;28;20057;-76
2023/05/05 06:29:45;;;;;;;24.00;9.88;;;;;;;20.63;90.71;101565.84;10340939;28;20062;-75
2023/05/05 06:34:47;;;;;;;12.35;11.05;;;;;;;19.76;90.98;101566.91;10323473;28;20034;-76
2023/05/05 06:39:47;;;;;;;15.05;10.98;;;;;;;18.94;92.51;101575.16;10341320;28;20390;-76
2023/05/05 06:44:48;;;;;;;25.38;10.15;;;;;;;18.47;92.61;101577.75;10339486;28;20046;-76
2023/05/05 06:49:48;;;;;;;13.32;8.95;;;;;;;19.05;92.39;101586.16;10305040;28;20474;-76
2023/05/05 06:54:49;;;;;;;11.75;6.70;;;;;;;20.55;90.75;101566.25;10339409;28;20039;-75
2023/05/05 06:59:49;;;;;;;9.57;5.75;;;;;;;19.91;87.83;101578.22;10319356;28;20474;-77
2023/05/05 07:04:49;;;;;;;8.10;6.00;;;;;;;19.18;87.45;101570.53;10320070;28;20034;-76
2023/05/05 07:09:50;;;;;;;5.13;4.70;;;;;;;20.03;86.97;101561.66;10338447;28;20185;-76
2023/05/05 07:14:50;;;;;;;7.75;5.85;;;;;;;20.06;85.76;101566.69;10319601;28;20046;-75
2023/05/05 07:19:51;;;;;;;7.82;5.53;;;;;;;19.55;85.43;101581.25;10319999;28;20042;-75
2023/05/05 07:24:52;;;;;;;6.20;5.40;;;;;;;19.45;86.11;101579.09;10321265;28;20089;-76
2023/05/05 07:29:52;;;;;;;9.73;5.75;;;;;;;19.24;85.81;101578.63;10341780;28;20042;-74
2023/05/05 07:34:52;;;;;;;6.32;4.53;;;;;;;18.85;84.66;101568.31;10308773;28;20199;-75
2023/05/05 07:39:53;;;;;;;12.65;5.32;;;;;;;18.80;85.39;101588.25;10321889;28;20478;-76
2023/05/05 07:44:54;;;;;;;7.43;5.28;;;;;;;18.83;85.01;101595.19;10335902;28;20035;-76
2023/05/05 07:49:54;;;;;;;8.55;5.32;;;;;;;19.21;84.90;101603.81;10336559;28;20037;-75
2023/05/05 07:54:54;;;;;;;5.40;4.32;;;;;;;19.98;83.63;101583.56;10320433;28;20102;-75
2023/05/05 07:59:55;;;;;;;8.13;4.38;;;;;;;20.54;82.32;101594.84;10318470;28;20335;-75
2023/05/05 08:04:55;;;;;;;5.25;3.60;;;;;;;20.48;81.15;101599.38;10335651;28;20030;-75
2023/05/05 08:09:56;;;;;;;17.80;4.25;;;;;;;20.55;80.88;101604.78;10317625;28;20105;-75
2023/05/05 08:14:56;;;;;;;9.65;3.92;;;;;;;20.19;80.20;101615.06;10317944;28;20038;-75
2023/05/05 08:19:57;;;;;;;11.60;4.25;;;;;;;19.77;81.38;101623.53;10319229;28;20490;-74
2023/05/05 08:24:57;;;;;;;4.72;2.65;;;;;;;19.32;80.09;101629.59;10335741;28;20449;-75
2023/05/05 08:29:58;;;;;;;7.78;3.17;;;;;;;18.35;81.17;101636.13;10335440;28;20129;-76
2023/05/05 08:35:00;;;;;;;4.43;2.40;;;;;;;17.23;85.93;101616.28;10337632;28;20042;-76
2023/05/05 08:40:00;;;;;;;6.20;2.35;;;;;;;16.85;87.89;101619.97;10335762;28;20037;-77
2023/05/05 08:45:00;;;;;;;4.35;2.92;;;;;;;16.71;89.37;101615.59;10317197;28;20383;-78
2023/05/05 08:50:01;;;;;;;4.10;2.78;;;;;;;16.79;90.84;101629.03;10301423;28;20096;-77
2023/05/05 08:55:08;;;;;;;5.05;3.33;;;;;;;17.07;95.00;101634.09;10334664;28;20057;-77
2023/05/05 09:00:09;;;;;;;5.35;2.63;;;;;;;16.94;100.00;101631.44;10317227;28;20038;-77
2023/05/05 09:05:09;;;;;;;3.65;3.25;;;;;;;17.05;100.00;101630.75;10300448;28;20471;-77
2023/05/05 09:10:10;;;;;;;3.60;3.30;;;;;;;17.49;100.00;101636.25;10335362;28;20340;-76
2023/05/05 09:15:12;;;;;;;4.18;3.80;;;;;;;17.45;100.00;101633.13;10333750;28;20046;-76
2023/05/05 09:20:13;;;;;;;4.15;3.63;;;;;;;17.09;100.00;101639.34;10316535;28;20369;-77
2023/05/05 09:25:15;;;;;;;9.90;4.72;;;;;;;16.69;100.00;101640.44;10334095;28;20037;-76
2023/05/05 09:30:25;;;;;;;5.55;4.60;;;;;;;16.65;100.00;101660.22;10316315;28;20043;-76
2023/05/05 09:35:26;;;;;;;8.13;5.00;;;;;;;16.67;100.00;101656.22;10315782;28;20104;-76
2023/05/05 09:40:26;;;;;;;9.68;4.45;;;;;;;16.98;100.00;101660.06;10331585;28;20093;-76
2023/05/05 09:45:27;;;;;;;12.20;6.07;;;;;;;17.34;100.00;101651.13;10315276;28;20478;-75
2023/05/05 09:50:29;;;;;;;11.57;6.55;;;;;;;17.45;100.00;101655.03;10333353;28;20034;-75
2023/05/05 09:55:32;;;;;;;13.07;7.55;;;;;;;17.55;100.00;101643.56;10333785;28;20097;-75
2023/05/05 10:00:38;;;;;;;10.20;6.55;;;;;;;17.56;100.00;101634.28;10340197;28;20053;-74
2023/05/05 10:06:06;;;;;;;11.93;6.65;;;;;;;17.55;100.00;101638.94;10336385;28;20371;-77
2023/05/05 10:11:07;;;;;;;8.80;6.00;;;;;;;17.60;100.00;101641.00;10330867;28;20058;-75
2023/05/05 10:16:08;;;;;;;10.63;5.63;;;;;;;17.56;100.00;101637.88;10333241;28;20061;-75
2023/05/05 10:21:08;;;;;;;12.50;5.72;;;;;;;17.68;100.00;101629.75;10332712;28;20038;-75
2023/05/05 10:26:09;;;;;;;9.48;5.72;;;;;;;17.96;100.00;101634.72;10315439;28;20045;-74
2023/05/05 10:31:19;;;;;;;12.13;5.90;;;;;;;17.86;100.00;101637.97;10314888;28;20390;-75
2023/05/05 10:36:20;;;;;;;9.13;5.78;;;;;;;17.44;100.00;101635.03;10322462;28;20081;-74
2023/05/05 10:41:21;;;;;;;10.93;5.07;;;;;;;17.04;100.00;101633.69;10305822;28;20096;-76
2023/05/05 10:46:22;;;;;;;5.05;4.53;;;;;;;17.03;100.00;101632.84;10305805;28;20042;-76
2023/05/05 10:51:40;;;;;;;13.88;4.60;;;;;;;16.93;100.00;101635.25;10338438;28;20110;-75
2023/05/05 10:56:40;;;;;;;9.40;6.97;;;;;;;16.94;100.00;101624.09;10306497;28;20033;-76
2023/05/05 11:01:41;;;;;;;7.63;6.43;;;;;;;16.83;100.00;101621.22;10321311;28;20034;-75
2023/05/05 11:07:07;;;;;;;13.45;8.00;;;;;;;16.55;100.00;101616.13;10306893;28;20061;-75
2023/05/05 11:12:07;;;;;;;9.27;6.72;;;;;;;16.20;100.00;101614.63;10339061;28;20038;-75
2023/05/05 11:17:43;;;;;;;15.05;7.80;;;;;;;16.09;100.00;101617.22;10304778;28;20042;-75
2023/05/05 11:23:01;;;;;;;11.07;6.35;;;;;;;16.10;100.00;101611.50;10339560;28;20038;-75
2023/05/05 11:28:07;;;;;;;8.55;5.65;;;;;;;15.97;100.00;101609.69;10320966;28;20034;-75
2023/05/05 11:33:29;;;;;;;17.05;5.72;;;;;;;15.81;100.00;101612.88;10339783;28;20439;-76
2023/05/05 11:38:59;;;;;;;13.60;8.63;;;;;;;15.50;100.00;101619.00;10321485;28;20089;-75
2023/05/05 11:44:08;;;;;;;9.27;6.68;;;;;;;15.36;100.00;101612.75;10335456;28;20056;-75
2023/05/05 11:49:09;;;;;;;11.02;7.70;;;;;;;15.21;100.00;101623.03;10336528;28;20097;-76
2023/05/05 11:54:09;;;;;;;14.48;6.45;;;;;;;15.06;100.00;101624.09;10336068;28;20469;-76
2023/05/05 11:59:10;;;;;;;11.52;7.15;;;;;;;14.92;100.00;101622.41;10319835;28;20375;-74
2023/05/05 12:04:11;;;;;;;11.13;6.82;;;;;;;14.62;100.00;101609.16;10317858;28;20062;-77
2023/05/05 12:09:15;;;;;;;16.17;7.30;;;;;;;14.58;100.00;101617.94;10318122;28;20049;-78
2023/05/05 12:14:16;;;;;;;1.65;1.55;;;;;;;14.42;100.00;101613.66;10318304;28;20066;-79
2023/05/05 12:19:16;;;;;;;1.05;1.05;;;;;;;14.50;100.00;101616.22;10335391;28;20128;-78
2023/05/05 12:24:16;;;;;;;1.55;1.38;;;;;;;14.23;100.00;101622.63;10337234;28;20378;-79
2023/05/05 12:29:27;;;;;;;1.45;0.95;;;;;;;14.19;100.00;101617.59;10319789;28;20061;-76
2023/05/05 12:34:28;;;;;;;0.60;0.60;;;;;;;14.38;100.00;101632.31;10337079;28;20104;-78
2023/05/05 12:39:35;;;;;;;0.63;0.63;;;;;;;14.46;100.00;101636.75;10317216;28;20100;-77
2023/05/05 12:44:36;;;;;;;0.60;0.60;;;;;;;14.54;100.00;101643.94;10334252;28;20454;-76
2023/05/05 12:49:49;;;;;;;1.52;1.50;;;;;;;14.42;100.00;101649.09;10316946;28;20050;-77
2023/05/05 12:54:57;;;;;;;0.35;0.35;;;;;;;14.33;100.00;101653.91;10316599;28;20046;-76
2023/05/05 12:59:57;;;;;;;0.10;0.10;;;;;;;14.18;100.00;101655.94;10302214;28;20122;-78
2023/05/05 13:04:58;;;;;;;0.38;0.38;;;;;;;14.08;100.00;101637.25;10316956;28;20133;-78
2023/05/05 13:10:09;;;;;;;0.55;0.55;;;;;;;14.00;100.00;101648.31;10333102;28;20528;-77
2023/05/05 13:15:11;;;;;;;0.40;0.40;;;;;;;13.98;100.00;101636.78;10334214;28;20104;-76
2023/05/05 13:20:12;;;;;;;0.20;0.20;;;;;;;14.00;100.00;101633.84;10334044;28;20046;-75
2023/05/05 13:25:12;;;;;;;0.30;0.30;;;;;;;14.06;100.00;101631.16;10332545;28;20061;-75
2023/05/05 13:30:13;;;;;;;0.15;0.15;;;;;;;14.33;100.00;101625.81;10316429;28;20089;-76
2023/05/05 13:35:13;;;;;;;0.80;0.80;;;;;;;14.60;100.00;101613.97;10315155;28;20598;-76
2023/05/05 13:40:14;;;;;;;0.20;0.20;;;;;;;14.91;100.00;101612.56;10334224;28;20030;-75
2023/05/05 13:45:16;;;;;;;0.40;0.40;;;;;;;15.29;100.00;101610.03;10302107;28;20134;-76
2023/05/05 13:50:16;;;;;;;0.20;0.20;;;;;;;15.65;100.00;101611.44;10317775;28;20035;-76
2023/05/05 13:55:17;;;;;;;0.50;0.50;;;;;;;15.92;100.00;101622.28;10316910;28;20034;-76
2023/05/05 14:00:19;;;;;;;0.30;0.30;;;;;;;15.75;100.00;101628.22;10333001;28;20106;-77
2023/05/05 14:05:20;;;;;;;0.47;0.45;;;;;;;15.74;100.00;101617.53;10333619;28;20034;-76
2023/05/05 14:10:20;;;;;;;0.30;0.30;;;;;;;15.72;100.00;101614.16;10324184;28;20050;-76
2023/05/05 14:15:21;;;;;;;0.50;0.50;;;;;;;16.65;100.00;101611.00;10307547;28;20145;-76
2023/05/05 14:20:21;;;;;;;1.10;0.98;;;;;;;17.54;100.00;101611.75;10323826;28;20125;-76
2023/05/05 14:25:22;;;;;;;0.55;0.55;;;;;;;17.46;100.00;101614.81;10323079;28;20040;-75
2023/05/05 14:30:23;;;;;;;0.77;0.77;;;;;;;17.63;100.00;101605.75;10338926;28;20129;-75
2023/05/05 14:35:23;;;;;;;1.30;1.25;;;;;;;18.32;100.00;101611.09;10340401;28;20429;-74
2023/05/05 14:40:23;;;;;;;0.63;0.63;;;;;;;18.99;100.00;101609.06;10340321;28;20041;-75
2023/05/05 14:45:25;;;;;;;0.57;0.57;;;;;;;18.83;100.00;101601.50;10340076;28;20093;-75
2023/05/05 14:50:25;;;;;;;6.53;3.67;;;;;;;18.69;100.00;101606.31;10339916;28;20042;-75
2023/05/05 14:55:26;;;;;;;3.40;3.08;;;;;;;18.28;100.00;101602.50;10324811;28;20462;-73
2023/05/05 15:00:26;;;;;;;4.95;3.22;;;;;;;18.14;100.00;101595.50;10344385;28;20145;-74
2023/05/05 15:05:27;;;;;;;4.82;3.58;;;;;;;18.08;100.00;101596.41;10344082;28;20092;-74
2023/05/05 15:10:27;;;;;;;6.80;5.57;;;;;;;18.19;100.00;101589.31;10338574;28;20070;-74
2023/05/05 15:15:27;;;;;;;9.57;5.40;;;;;;;18.09;100.00;101590.72;10321180;28;20093;-74
2023/05/05 15:20:28;;;;;;;5.38;4.88;;;;;;;17.82;100.00;101590.19;10338333;28;20061;-75
2023/05/05 15:25:28;;;;;;;9.15;6.35;;;;;;;18.18;100.00;101590.38;10320764;28;20061;-75
2023/05/05 15:30:29;;;;;;;9.13;6.30;;;;;;;18.81;100.00;101589.91;10304122;28;20350;-72
2023/05/05 15:35:30;;;;;;;6.45;4.90;;;;;;;19.17;100.00;101593.53;10337743;28;20072;-75
2023/05/05 15:40:30;;;;;;;6.30;5.90;;;;;;;18.84;100.00;101583.97;10335391;28;20420;-74
2023/05/05 15:45:31;;;;;;;8.55;7.32;;;;;;;19.03;100.00;101579.22;10336624;28;20113;-75
2023/05/05 15:50:31;;;;;;;11.20;6.93;;;;;;;19.34;100.00;101578.03;10337306;28;20045;-74
2023/05/05 15:55:31;;;;;;;15.40;9.80;;;;;;;19.93;100.00;101580.72;10336915;28;20030;-75
2023/05/05 16:00:32;;;;;;;7.85;7.15;;;;;;;20.18;100.00;101572.97;10337170;28;20027;-75
2023/05/05 16:05:32;;;;;;;10.50;8.43;;;;;;;19.48;100.00;101567.63;10334672;28;20042;-74
2023/05/05 16:10:33;;;;;;;10.38;7.30;;;;;;;18.47;100.00;101567.59;10336407;28;20062;-74
2023/05/05 16:15:34;;;;;;;8.18;7.13;;;;;;;18.35;100.00;101570.31;10319921;28;20034;-73
2023/05/05 16:20:35;;;;;;;9.85;7.78;;;;;;;18.35;100.00;101569.50;10336930;28;20035;-75
2023/05/05 16:25:35;;;;;;;11.07;8.13;;;;;;;18.50;100.00;101558.91;10318137;28;20037;-74
2023/05/05 16:30:36;;;;;;;15.60;7.10;;;;;;;18.49;100.00;101556.41;10335101;28;20038;-75
2023/05/05 16:35:37;;;;;;;7.30;6.70;;;;;;;18.10;100.00;101564.16;10335823;28;20058;-74
2023/05/05 16:40:38;;;;;;;6.80;6.20;;;;;;;17.93;100.00;101563.91;10317795;28;20121;-74
2023/05/05 16:45:38;;;;;;;7.40;6.75;;;;;;;17.79;100.00;101557.78;10317470;28;20035;-74
2023/05/05 16:50:38;;;;;;;10.65;7.80;;;;;;;17.59;100.00;101555.25;10318848;28;20181;-74
2023/05/05 16:55:39;;;;;;;12.23;7.50;;;;;;;17.44;100.00;101565.72;10316587;28;20041;-75
2023/05/05 17:00:39;;;;;;;10.02;8.40;;;;;;;17.56;100.00;101565.81;10317154;28;20038;-74
2023/05/05 17:05:40;;;;;;;8.88;7.90;;;;;;;17.60;100.00;101561.56;10317452;28;20073;-74
2023/05/05 17:10:41;;;;;;;7.05;6.35;;;;;;;17.60;100.00;101567.03;10334781;28;20050;-75
2023/05/05 17:15:43;;;;;;;13.55;7.72;;;;;;;17.73;100.00;101550.44;10333499;28;20488;-74
2023/05/05 17:20:43;;;;;;;8.18;6.65;;;;;;;17.51;100.00;101552.81;10319020;28;20064;-74
2023/05/05 17:25:43;;;;;;;10.25;7.10;;;;;;;17.39;100.00;101552.75;10322135;28;20382;-75
2023/05/05 17:30:44;;;;;;;9.88;7.68;;;;;;;17.24;100.00;101559.63;10341611;28;20041;-74
2023/05/05 17:35:44;;;;;;;16.70;7.55;;;;;;;17.03;100.00;101545.28;10336314;28;20042;-75
2023/05/05 17:40:45;;;;;;;8.68;7.72;;;;;;;16.79;100.00;101549.72;10334144;28;20431;-75
2023/05/05 17:45:45;;;;;;;10.60;6.55;;;;;;;16.50;100.00;101542.97;10341366;28;20038;-74
2023/05/05 17:50:46;;;;;;;8.68;6.93;;;;;;;16.30;100.00;101540.34;10324771;28;20500;-74
2023/05/05 17:55:46;;;;;;;14.98;7.00;;;;;;;16.15;100.00;101550.75;10342314;28;20054;-73
2023/05/05 18:00:47;;;;;;;8.55;7.75;;;;;;;15.97;100.00;101549.56;10342124;28;20443;-75
2023/05/05 18:05:47;;;;;;;12.27;7.10;;;;;;;15.81;100.00;101550.06;10323187;28;20034;-74
2023/05/05 18:10:48;;;;;;;10.40;8.20;;;;;;;15.65;100.00;101543.16;10341675;28;20112;-76
2023/05/05 18:15:48;;;;;;;13.35;9.70;;;;;;;15.53;100.00;101539.44;10340241;28;20034;-74
2023/05/05 18:20:48;;;;;;;10.57;9.05;;;;;;;15.48;100.00;101556.47;10324424;28;20073;-75
2023/05/05 18:25:49;;;;;;;20.88;10.30;;;;;;;15.39;100.00;101549.56;10325392;28;20106;-74
2023/05/05 18:30:50;;;;;;;16.80;8.30;;;;;;;15.32;100.00;101555.03;10339794;28;20034;-72
2023/05/05 18:35:50;;;;;;;9.13;8.10;;;;;;;15.25;100.00;101565.13;10323008;28;20466;-75
2023/05/05 18:40:51;;;;;;;16.83;8.77;;;;;;;15.14;100.00;101568.47;10339972;28;20071;-73
2023/05/05 18:45:51;;;;;;;27.33;10.60;;;;;;;15.03;100.00;101566.41;10321598;28;20061;-73
2023/05/05 18:50:52;;;;;;;18.33;10.02;;;;;;;14.88;100.00;101574.78;10322264;28;20118;-75
2023/05/05 18:55:52;;;;;;;14.95;9.43;;;;;;;14.78;100.00;101574.38;10337654;28;20509;-75
2023/05/05 19:00:53;;;;;;;14.65;10.38;;;;;;;14.64;100.00;101582.53;10339184;28;20439;-74
2023/05/05 19:05:53;;;;;;;20.08;10.45;;;;;;;14.44;100.00;101584.34;10321347;28;20030;-72
2023/05/05 19:10:54;;;;;;;11.43;9.30;;;;;;;14.31;100.00;101582.44;10338857;28;20381;-74
2023/05/05 19:15:56;;;;;;;13.85;9.82;;;;;;;14.24;100.00;101589.75;10321435;28;20062;-74
2023/05/05 19:20:56;;;;;;;17.27;10.70;;;;;;;14.17;100.00;101597.06;10320639;28;20042;-74
2023/05/05 19:25:57;;;;;;;16.13;11.63;;;;;;;14.10;100.00;101601.63;10320068;28;20038;-73
2023/05/05 19:30:57;;;;;;;11.75;9.93;;;;;;;14.01;100.00;101600.13;10304886;28;20074;-73
2023/05/05 19:35:57;;;;;;;20.83;9.98;;;;;;;13.85;100.00;101601.34;10320458;28;20109;-74
2023/05/05 19:40:58;;;;;;;14.43;10.40;;;;;;;13.77;100.00;101606.94;10335884;28;20461;-73
2023/05/05 19:45:58;;;;;;;12.68;11.38;;;;;;;13.74;100.00;101610.88;10337645;28;20070;-74
2023/05/05 19:50:59;;;;;;;13.48;10.30;;;;;;;13.68;100.00;101617.13;10336197;28;20034;-74
2023/05/05 19:56:00;;;;;;;14.05;10.48;;;;;;;13.56;100.00;101611.44;10322024;28;20030;-74
2023/05/05 20:01:00;;;;;;;16.75;11.65;;;;;;;13.54;100.00;101612.66;10320497;28;20397;-72
2023/05/05 20:06:00;;;;;;;15.80;12.15;;;;;;;13.61;100.00;101622.53;10337476;28;20026;-74
2023/05/05 20:11:01;;;;;;;14.48;11.95;;;;;;;13.69;100.00;101624.28;10318583;28;20050;-74
2023/05/05 20:16:01;;;;;;;15.05;9.57;;;;;;;13.72;100.00;101624.72;10335831;28;20033;-74
2023/05/05 20:21:02;;;;;;;17.98;12.77;;;;;;;13.68;100.00;101622.59;10318336;28;20088;-74
2023/05/05 20:26:02;;;;;;;19.17;13.25;;;;;;;13.68;100.00;101617.97;10319510;28;20030;-74
2023/05/05 20:31:03;;;;;;;18.38;12.40;;;;;;;13.64;100.00;101621.31;10320587;28;20125;-74
2023/05/05 20:36:04;;;;;;;13.05;10.60;;;;;;;13.59;100.00;101619.19;10337169;28;20057;-74
2023/05/05 20:41:05;;;;;;;19.95;12.55;;;;;;;13.57;100.00;101623.16;10318470;28;20045;-73
2023/05/05 20:46:08;;;;;;;28.58;19.02;;;;;;;13.48;100.00;101625.19;10317445;28;20505;-74
2023/05/05 20:51:09;;;;;;;24.70;13.07;;;;;;;13.44;100.00;101630.19;10334194;28;20484;-75
2023/05/05 20:56:09;;;;;;;15.43;12.23;;;;;;;13.41;100.00;101632.47;10316330;28;20069;-73
2023/05/05 21:01:10;;;;;;;15.98;11.82;;;;;;;13.35;100.00;101630.53;10336244;28;20526;-74
2023/05/05 21:06:11;;;;;;;13.77;12.10;;;;;;;13.29;100.00;101632.16;10333642;28;20034;-73
2023/05/05 21:11:11;;;;;;;19.70;12.07;;;;;;;13.22;100.00;101631.25;10335281;28;20054;-74
2023/05/05 21:16:11;;;;;;;15.70;11.65;;;;;;;13.17;100.00;101634.53;10334421;28;20062;-73
2023/05/05 21:21:12;;;;;;;15.27;11.30;;;;;;;13.11;100.00;101638.03;10332521;28;20038;-73
2023/05/05 21:26:12;;;;;;;15.82;11.48;;;;;;;13.11;100.00;101646.19;10334382;28;20056;-73
2023/05/05 21:31:13;;;;;;;13.55;11.85;;;;;;;13.03;100.00;101643.63;10316581;28;20390;-72
2023/05/05 21:36:17;;;;;;;13.10;10.38;;;;;;;12.99;100.00;101637.75;10316133;28;20034;-73
2023/05/05 21:41:18;;;;;;;16.42;11.80;;;;;;;12.94;100.00;101632.03;10333189;28;20371;-73
2023/05/05 21:46:18;;;;;;;26.60;11.95;;;;;;;12.96;100.00;101640.03;10317236;28;20038;-73
2023/05/05 21:51:21;;;;;;;15.25;11.23;;;;;;;12.97;100.00;101636.25;10315886;28;20097;-73
2023/05/05 21:56:21;;;;;;;17.45;11.13;;;;;;;13.00;100.00;101633.16;10315730;28;20036;-73
2023/05/05 22:01:22;;;;;;;19.80;12.38;;;;;;;13.19;100.00;101628.91;10315078;28;20069;-72
2023/05/05 22:06:22;;;;;;;20.35;13.77;;;;;;;13.23;100.00;101622.03;10314855;28;20042;-72
2023/05/05 22:11:22;;;;;;;22.58;14.15;;;;;;;13.11;100.00;101616.28;10315704;28;20066;-72
2023/05/05 22:16:23;;;;;;;15.88;13.63;;;;;;;13.06;100.00;101610.59;10332971;28;20486;-73
2023/05/05 22:21:23;;;;;;;19.23;12.43;;;;;;;12.98;100.00;101610.75;10335454;28;20386;-73
2023/05/05 22:26:24;;;;;;;17.85;12.60;;;;;;;12.88;100.00;101616.50;10319683;28;20038;-73
2023/05/05 22:31:25;;;;;;;17.67;12.40;;;;;;;12.81;100.00;101612.91;10312436;28;20125;-74
2023/05/05 22:36:26;;;;;;;20.27;13.75;;;;;;;12.86;100.00;101615.88;10343102;28;20038;-73
2023/05/05 22:41:26;;;;;;;17.38;13.77;;;;;;;12.87;100.00;101609.41;10341847;28;20034;-74